Time;durP1;ratioP1;P1;durP2;ratioP2;P2;SDS_P1;SDS_P2;PMS_P1;PMS_P2;Temp;Humidity;BMP_temperature;BMP_pressure;BME280_temperature;BME280_humidity;BME280_pressure;Samples;Min_cycle;Max_cycle;Signal;HPM_P1;HPM_P2
2022/10/22 00:01:33;;;;;;;0.70;0.40;;;19.20;99.90;;;19.51;58.63;100613.53;4494533;30;100655;-46
2022/10/22 00:03:59;;;;;;;0.47;0.30;;;19.30;99.90;;;19.54;59.27;100618.69;4493149;30;99226;-48
2022/10/22 00:06:25;;;;;;;0.33;0.20;;;19.30;99.90;;;19.53;58.78;100612.50;4495928;30;97904;-49
2022/10/22 00:08:51;;;;;;;0.57;0.30;;;19.30;99.90;;;19.54;59.03;100614.22;4489646;30;97871;-50
2022/10/22 00:11:18;;;;;;;1.13;0.50;;;19.40;99.90;;;19.51;59.14;100619.75;4495601;30;98475;-50
2022/10/22 00:13:46;;;;;;;0.30;0.20;;;19.30;99.90;;;19.54;59.18;100616.03;4495970;30;98285;-45
2022/10/22 00:16:12;;;;;;;0.37;0.30;;;19.30;99.90;;;19.53;59.40;100619.66;4555151;30;98056;-47
2022/10/22 00:18:39;;;;;;;0.57;0.30;;;19.30;99.90;;;19.55;59.18;100620.44;4588492;30;97003;-49
2022/10/22 00:21:06;;;;;;;1.77;0.50;;;19.30;99.90;;;19.50;59.49;100623.38;4587535;30;99696;-47
2022/10/22 00:23:32;;;;;;;0.93;0.60;;;19.20;99.90;;;19.46;60.10;100621.06;4593406;30;96857;-44
2022/10/22 00:25:58;;;;;;;0.43;0.30;;;19.10;99.90;;;19.41;60.05;100623.22;4586109;30;97241;-48
2022/10/22 00:28:24;;;;;;;0.60;0.57;;;19.00;99.90;;;19.37;60.48;100629.75;4592641;30;104420;-45
2022/10/22 00:30:58;;;;;;;0.97;0.60;;;19.00;99.90;;;19.35;59.95;100629.00;4587955;30;97027;-51
2022/10/22 00:33:24;;;;;;;0.80;0.50;;;18.90;99.90;;;19.36;60.47;100620.88;4590300;30;98058;-49
2022/10/22 00:35:50;;;;;;;0.93;0.70;;;19.00;99.90;;;19.35;60.46;100634.34;4585749;30;97696;-44
2022/10/22 00:38:17;;;;;;;0.70;0.40;;;18.90;99.90;;;19.31;60.42;100617.69;4592628;30;98079;-49
2022/10/22 00:40:43;;;;;;;0.80;0.70;;;18.90;99.90;;;19.29;60.55;100628.50;4591228;30;99317;-47
2022/10/22 00:43:14;;;;;;;1.30;0.70;;;18.90;99.90;;;19.29;60.95;100625.81;4584655;30;98669;-47
2022/10/22 00:45:40;;;;;;;0.20;0.20;;;18.90;99.90;;;19.31;59.61;100626.56;4589138;30;97504;-46
2022/10/22 00:48:22;;;;;;;0.30;0.30;;;18.90;99.90;;;19.35;59.54;100629.88;4587721;30;98501;-50
2022/10/22 00:51:03;;;;;;;0.20;0.20;;;19.00;99.90;;;19.38;60.15;100623.44;4603780;30;98275;-47
2022/10/22 00:53:39;;;;;;;0.83;0.40;;;19.10;99.90;;;19.37;59.62;100624.41;4589619;30;97793;-52
2022/10/22 00:56:06;;;;;;;1.10;0.50;;;19.00;99.90;;;19.41;59.85;100620.56;4588478;30;97163;-47
2022/10/22 00:58:38;;;;;;;0.50;0.30;;;19.10;99.90;;;19.41;59.33;100623.22;4603221;30;97435;-45
2022/10/22 01:01:07;;;;;;;0.20;0.20;;;19.10;99.90;;;19.46;58.89;100619.25;4587878;30;99099;-45
2022/10/22 01:03:33;;;;;;;0.20;0.20;;;19.20;99.90;;;19.47;59.42;100622.78;4591243;30;97221;-47
2022/10/22 01:06:02;;;;;;;0.70;0.40;;;19.20;99.90;;;19.49;59.14;100621.69;4586159;30;102654;-47
2022/10/22 01:08:42;;;;;;;0.90;0.30;;;19.20;99.90;;;19.54;58.82;100618.69;4591483;30;97014;-47
2022/10/22 01:11:23;;;;;;;0.33;0.33;;;19.30;99.90;;;19.60;58.59;100618.25;4588357;30;98720;-45
2022/10/22 01:14:10;;;;;;;0.50;0.30;;;19.40;99.90;;;19.64;58.28;100618.88;4598727;29;97773;-49
2022/10/22 01:16:51;;;;;;;0.30;0.30;;;19.50;99.90;;;19.67;58.35;100619.50;4704108;29;122204;-50
2022/10/22 01:19:41;;;;;;;0.20;0.20;;;19.50;99.90;;;19.73;57.99;100603.00;4774698;29;101006;-48
2022/10/22 01:22:34;;;;;;;0.40;0.23;;;19.60;99.90;;;19.79;57.81;100601.69;4776073;29;97864;-47
2022/10/22 01:25:11;;;;;;;0.33;0.20;;;19.70;99.90;;;19.82;57.79;100606.84;4777024;29;102584;-51
2022/10/22 01:27:43;;;;;;;1.13;0.50;;;19.80;99.90;;;19.85;57.99;100606.59;4763981;29;97097;-50
2022/10/22 01:30:13;;;;;;;0.47;0.30;;;19.80;99.90;;;19.85;58.41;100599.41;4775612;29;97830;-49
2022/10/22 01:32:53;;;;;;;0.20;0.20;;;19.70;99.90;;;19.83;58.25;100596.00;4775426;29;97642;-48
2022/10/22 01:35:42;;;;;;;0.10;0.00;;;19.70;99.90;;;19.84;57.81;100595.03;4754359;29;105662;-49
2022/10/22 01:38:16;;;;;;;0.40;0.40;;;19.70;99.90;;;19.83;58.39;100598.69;4772591;29;98396;-48
2022/10/22 01:40:42;;;;;;;0.20;0.20;;;19.70;99.90;;;19.82;57.69;100601.47;4777469;29;97261;-52
2022/10/22 01:43:10;;;;;;;0.20;0.20;;;19.70;99.90;;;19.84;57.72;100595.03;4792719;29;121862;-45
2022/10/22 01:45:50;;;;;;;0.50;0.30;;;19.80;99.90;;;19.89;57.63;100590.19;4795179;29;99474;-47
2022/10/22 01:48:49;;;;;;;0.60;0.37;;;19.80;99.90;;;19.91;57.55;100588.25;4778017;29;97645;-50
2022/10/22 01:51:48;;;;;;;0.20;0.20;;;19.80;99.90;;;19.91;57.52;100585.56;4767736;29;103300;-50
2022/10/22 01:54:45;;;;;;;0.30;0.30;;;19.80;99.90;;;19.92;57.77;100594.44;4789426;29;104622;-44
2022/10/22 01:57:48;;;;;;;0.87;0.60;;;19.80;99.90;;;19.81;58.28;100600.59;4791608;29;97599;-49
2022/10/22 02:00:17;;;;;;;0.50;0.50;;;19.60;99.90;;;19.75;59.50;100594.84;4790074;29;97567;-47
2022/10/22 02:02:58;;;;;;;0.30;0.30;;;19.50;99.90;;;19.73;58.38;100591.44;4794355;29;97985;-47
2022/10/22 02:05:54;;;;;;;1.00;0.60;;;19.50;99.90;;;19.73;58.46;100588.78;4792651;29;102621;-46
2022/10/22 02:08:26;;;;;;;0.53;0.30;;;19.50;99.90;;;19.69;58.42;100590.84;4781851;29;97360;-47
2022/10/22 02:10:53;;;;;;;0.30;0.20;;;19.40;99.90;;;19.70;58.13;100592.53;4787604;29;97201;-46
2022/10/22 02:13:27;;;;;;;0.33;0.33;;;19.50;99.90;;;19.70;59.37;100597.03;4794036;29;97451;-44
2022/10/22 02:15:54;;;;;;;0.73;0.47;;;19.50;99.90;;;19.66;59.24;100607.09;4800633;28;97613;-49
2022/10/22 02:18:27;;;;;;;0.30;0.20;;;19.40;99.90;;;19.66;58.49;100585.69;4797383;29;104034;-46
2022/10/22 02:20:53;;;;;;;0.40;0.20;;;19.40;99.90;;;19.70;58.94;100605.91;4790976;29;97629;-49
2022/10/22 02:23:21;;;;;;;0.23;0.23;;;19.50;99.90;;;19.67;58.77;100611.47;4791197;29;97516;-48
2022/10/22 02:25:54;;;;;;;0.80;0.30;;;19.40;99.90;;;19.70;58.18;100605.91;4791547;29;97423;-49
2022/10/22 02:28:45;;;;;;;1.90;0.40;;;19.50;99.90;;;19.75;58.20;100605.56;4783985;29;99270;-46
2022/10/22 02:31:20;;;;;;;0.60;0.43;;;19.60;99.90;;;19.77;57.90;100604.47;4789765;29;97629;-49
2022/10/22 02:33:50;;;;;;;0.27;0.17;;;19.60;99.90;;;19.81;57.94;100595.25;4788390;29;97585;-45
2022/10/22 02:36:17;;;;;;;0.30;0.30;;;19.70;99.90;;;19.83;57.87;100598.69;4809197;29;101011;-48
2022/10/22 02:38:45;;;;;;;0.80;0.50;;;19.70;99.90;;;19.78;58.86;100605.34;4795845;29;97186;-46
2022/10/22 02:41:11;;;;;;;0.43;0.43;;;19.60;99.90;;;19.72;59.73;100606.66;4782373;29;96775;-44
2022/10/22 02:43:44;;;;;;;0.67;0.60;;;19.60;99.90;;;19.65;59.97;100618.75;4789092;29;118674;-48
2022/10/22 02:46:10;;;;;;;0.63;0.43;;;19.40;99.90;;;19.57;58.73;100607.78;4785691;29;97128;-51
2022/10/22 02:48:37;;;;;;;0.63;0.60;;;19.30;99.90;;;19.54;60.64;100613.34;4789783;29;96741;-48
2022/10/22 02:51:03;;;;;;;0.77;0.20;;;19.20;99.90;;;19.50;59.14;100617.19;4788908;29;97138;-46
2022/10/22 02:53:28;;;;;;;0.50;0.30;;;19.20;99.90;;;19.54;58.94;100618.69;4792995;29;98137;-46
2022/10/22 02:55:54;;;;;;;0.77;0.40;;;19.20;99.90;;;19.56;59.19;100611.44;4790564;29;111274;-47
2022/10/22 02:58:20;;;;;;;0.40;0.40;;;19.40;99.90;;;19.58;58.72;100610.34;4795623;29;99495;-48
2022/10/22 03:00:47;;;;;;;1.67;0.33;;;19.40;99.90;;;19.63;58.80;100604.66;4791662;29;112465;-52
2022/10/22 03:03:13;;;;;;;0.40;0.20;;;19.50;99.90;;;19.63;58.50;100609.16;4779464;29;97550;-48
2022/10/22 03:05:38;;;;;;;0.27;0.27;;;19.40;99.90;;;19.66;58.50;100607.09;4786928;29;97831;-50
2022/10/22 03:08:04;;;;;;;0.60;0.43;;;19.50;99.90;;;19.68;59.33;100621.25;4785624;29;113139;-46
2022/10/22 03:10:30;;;;;;;2.30;0.40;;;19.50;99.90;;;19.66;58.44;100609.78;4793149;29;97058;-48
2022/10/22 03:12:56;;;;;;;0.60;0.53;;;19.50;99.90;;;19.67;58.58;100622.19;4789047;29;97201;-50
2022/10/22 03:15:21;;;;;;;0.73;0.57;;;19.50;99.90;;;19.59;59.35;100612.06;4838287;28;97812;-46
2022/10/22 03:17:47;;;;;;;0.80;0.60;;;19.30;99.90;;;19.56;59.58;100611.44;4872210;28;97554;-53
2022/10/22 03:20:13;;;;;;;0.60;0.50;;;19.30;99.90;;;19.47;59.73;100612.06;4867557;28;98619;-48
2022/10/22 03:22:41;;;;;;;0.33;0.30;;;19.10;99.90;;;19.46;59.57;100615.72;4872190;28;97646;-51
2022/10/22 03:25:12;;;;;;;0.50;0.40;;;19.10;99.90;;;19.42;60.08;100619.59;4869402;28;98410;-51
2022/10/22 03:27:39;;;;;;;0.20;0.20;;;19.00;99.90;;;19.42;59.26;100624.94;4869348;28;97339;-49
2022/10/22 03:30:06;;;;;;;0.40;0.40;;;19.00;99.90;;;19.32;59.63;100625.59;4866227;28;103509;-48
2022/10/22 03:32:32;;;;;;;1.50;0.47;;;18.90;99.90;;;19.30;59.79;100627.53;4871031;28;97484;-51
2022/10/22 03:34:58;;;;;;;0.30;0.30;;;18.90;99.90;;;19.30;59.62;100624.84;4867861;28;97136;-53
2022/10/22 03:37:25;;;;;;;0.70;0.20;;;18.90;99.90;;;19.29;60.11;100623.16;4868621;28;113483;-48
2022/10/22 03:39:52;;;;;;;0.80;0.20;;;18.90;99.90;;;19.31;59.68;100623.88;4863723;28;97602;-51
2022/10/22 03:42:18;;;;;;;0.97;0.67;;;19.00;99.90;;;19.24;60.54;100633.34;4869047;28;97738;-51
2022/10/22 03:44:44;;;;;;;0.23;0.23;;;18.90;99.90;;;19.20;60.46;100631.81;4868674;28;103425;-48
2022/10/22 03:47:09;;;;;;;0.40;0.37;;;18.80;99.90;;;19.17;60.05;100632.06;4866702;28;97640;-44
2022/10/22 03:49:35;;;;;;;2.73;0.60;;;18.70;99.90;;;19.13;60.69;100633.25;4867385;28;97518;-45
2022/10/22 03:52:06;;;;;;;0.50;0.50;;;18.70;99.90;;;19.05;61.07;100642.75;4867227;28;97545;-49
2022/10/22 03:54:32;;;;;;;0.67;0.63;;;18.50;99.90;;;18.97;61.41;100632.63;4877140;28;98615;-47
2022/10/22 03:56:58;;;;;;;0.73;0.60;;;18.40;99.90;;;19.01;60.86;100636.78;4861369;28;97134;-51
2022/10/22 03:59:24;;;;;;;0.20;0.20;;;18.50;99.90;;;19.04;60.73;100636.56;4870704;28;97709;-48
2022/10/22 04:01:49;;;;;;;1.60;0.20;;;18.50;99.90;;;19.10;60.25;100635.28;4869343;28;97358;-49
2022/10/22 04:04:15;;;;;;;0.60;0.33;;;18.70;99.90;;;19.15;60.42;100636.66;4880404;28;122769;-47
2022/10/22 04:06:41;;;;;;;0.97;0.60;;;18.80;99.90;;;19.13;60.33;100646.63;4872223;28;97072;-50
2022/10/22 04:09:06;;;;;;;0.63;0.50;;;18.70;99.90;;;19.02;60.90;100649.19;4867779;28;109851;-45
2022/10/22 04:11:32;;;;;;;1.50;0.70;;;18.60;99.90;;;18.96;60.97;100650.50;4872083;28;96806;-48
2022/10/22 04:14:04;;;;;;;0.60;0.50;;;18.50;99.90;;;18.94;61.42;100651.53;4975521;27;97145;-51
2022/10/22 04:16:31;;;;;;;1.17;0.60;;;18.40;99.90;;;18.90;61.38;100655.41;4950827;28;97290;-49
2022/10/22 04:18:57;;;;;;;0.47;0.40;;;18.30;99.90;;;18.94;61.20;100659.56;4961151;28;97128;-50
2022/10/22 04:21:24;;;;;;;0.63;0.47;;;18.40;99.90;;;18.92;61.62;100664.16;4965038;28;97334;-46
2022/10/22 04:23:52;;;;;;;4.17;0.40;;;18.40;99.90;;;18.89;61.38;100661.69;4960468;28;96934;-55
2022/10/22 04:26:19;;;;;;;0.63;0.40;;;18.40;99.90;;;18.94;60.98;100662.22;4953389;28;96946;-52
2022/10/22 04:28:47;;;;;;;0.60;0.30;;;18.50;99.90;;;19.02;60.80;100658.06;4967617;28;96828;-50
2022/10/22 04:31:17;;;;;;;0.97;0.40;;;18.60;99.90;;;19.09;60.45;100658.47;4962839;28;97586;-49
2022/10/22 04:33:43;;;;;;;1.67;0.80;;;18.80;99.90;;;19.10;60.50;100660.19;4960413;28;97478;-46
2022/10/22 04:36:17;;;;;;;1.40;0.67;;;18.80;99.90;;;19.11;60.47;100672.59;4960547;28;96963;-44
2022/10/22 04:38:45;;;;;;;0.70;0.53;;;18.70;99.90;;;19.04;60.57;100673.97;4962033;28;97029;-48
2022/10/22 04:41:13;;;;;;;0.90;0.70;;;18.60;99.90;;;19.01;61.28;100679.56;4958915;28;97197;-45
2022/10/22 04:43:40;;;;;;;3.10;0.90;;;18.50;99.90;;;18.97;61.29;100678.06;4965263;28;97278;-45
2022/10/22 04:46:10;;;;;;;0.30;0.30;;;18.50;99.90;;;18.93;61.12;100671.19;4959904;28;100253;-47
2022/10/22 04:48:38;;;;;;;0.67;0.60;;;18.40;99.90;;;18.94;60.96;100683.59;4968192;28;97360;-44
2022/10/22 04:51:06;;;;;;;0.20;0.20;;;18.40;99.90;;;18.93;60.78;100687.25;4962535;28;97404;-45
2022/10/22 04:53:35;;;;;;;0.60;0.30;;;18.40;99.90;;;18.90;61.07;100688.31;4968890;28;97442;-47
2022/10/22 04:56:12;;;;;;;0.37;0.30;;;18.40;99.90;;;18.89;61.11;100688.44;4954718;28;97301;-50
2022/10/22 04:58:38;;;;;;;0.27;0.20;;;18.30;99.90;;;18.92;60.91;100696.22;4976279;28;96929;-48
2022/10/22 05:01:19;;;;;;;0.40;0.37;;;18.40;99.90;;;18.94;61.10;100694.28;4963970;28;96885;-48
2022/10/22 05:03:46;;;;;;;0.37;0.37;;;18.50;99.90;;;18.94;60.94;100691.63;4967933;28;97174;-45
2022/10/22 05:06:13;;;;;;;0.67;0.60;;;18.50;99.90;;;18.98;60.66;100696.66;4961398;28;97449;-48
2022/10/22 05:08:39;;;;;;;0.50;0.30;;;18.60;99.90;;;19.03;60.38;100699.00;4967512;28;98056;-47
2022/10/22 05:11:22;;;;;;;1.00;0.50;;;18.60;99.90;;;19.06;60.41;100704.13;4959642;28;97853;-52
2022/10/22 05:13:48;;;;;;;0.47;0.30;;;18.70;99.90;;;19.07;60.52;100695.16;4968694;28;97465;-47
2022/10/22 05:16:14;;;;;;;0.23;0.23;;;18.70;99.90;;;19.14;60.17;100696.44;4961668;28;97649;-46
2022/10/22 05:18:43;;;;;;;0.67;0.40;;;18.80;99.90;;;19.20;59.96;100698.66;4961054;28;99280;-45
2022/10/22 05:21:13;;;;;;;0.93;0.60;;;18.90;99.90;;;19.25;59.47;100709.06;4961609;28;97110;-46
2022/10/22 05:23:40;;;;;;;1.13;0.30;;;19.00;99.90;;;19.23;59.76;100711.81;4968348;28;97270;-47
2022/10/22 05:26:08;;;;;;;0.67;0.40;;;18.90;99.90;;;19.24;59.84;100701.97;4920041;28;102504;-47
2022/10/22 05:28:35;;;;;;;1.10;0.60;;;18.90;99.90;;;19.25;59.48;100701.88;4953186;28;97208;-45
2022/10/22 05:31:02;;;;;;;0.40;0.20;;;18.90;99.90;;;19.22;59.79;100710.09;4954370;28;103028;-46
2022/10/22 05:33:29;;;;;;;0.40;0.23;;;18.90;99.90;;;19.19;60.07;100725.53;4954805;28;97410;-45
2022/10/22 05:35:56;;;;;;;0.50;0.40;;;18.80;99.90;;;19.20;59.86;100722.72;4959507;28;97334;-46
2022/10/22 05:38:22;;;;;;;0.60;0.30;;;18.80;99.90;;;19.19;59.98;100725.53;4936301;28;98231;-48
2022/10/22 05:41:18;;;;;;;0.20;0.13;;;18.80;99.90;;;19.24;59.82;100723.38;4935375;28;98133;-51
2022/10/22 05:43:44;;;;;;;0.77;0.37;;;18.90;99.90;;;19.24;59.71;100726.03;4932146;28;97352;-50
2022/10/22 05:46:14;;;;;;;1.00;0.27;;;18.90;99.90;;;19.28;59.58;100724.88;4949382;28;97578;-46
2022/10/22 05:48:40;;;;;;;0.30;0.30;;;19.00;99.90;;;19.32;59.50;100729.91;4950139;28;97654;-50
2022/10/22 05:51:12;;;;;;;0.17;0.17;;;19.00;99.90;;;19.37;59.13;100729.56;4948636;28;108057;-48
2022/10/22 05:53:40;;;;;;;0.77;0.30;;;19.20;99.90;;;19.35;59.47;100742.19;4953528;28;97525;-47
2022/10/22 05:56:15;;;;;;;1.50;0.37;;;19.10;99.90;;;19.40;59.01;100744.56;4951829;28;97278;-45
2022/10/22 05:58:43;;;;;;;1.30;0.33;;;19.20;99.90;;;19.46;59.06;100744.09;4953829;28;96664;-47
2022/10/22 06:01:26;;;;;;;1.03;0.53;;;19.30;99.90;;;19.49;58.76;100743.88;4949146;28;96899;-44
2022/10/22 06:03:58;;;;;;;0.50;0.40;;;19.30;99.90;;;19.47;58.72;100748.50;4938091;28;97233;-46
2022/10/22 06:06:29;;;;;;;0.50;0.20;;;19.30;99.90;;;19.38;58.97;100757.16;4955621;28;97237;-44
2022/10/22 06:09:00;;;;;;;0.97;0.80;;;19.10;99.90;;;19.36;58.77;100759.94;4950095;28;98001;-47
2022/10/22 06:11:26;;;;;;;0.50;0.27;;;19.10;99.90;;;19.31;59.44;100757.59;4948628;28;97757;-45
2022/10/22 06:13:51;;;;;;;0.63;0.30;;;18.90;99.90;;;19.26;59.57;100767.78;4953666;28;97225;-47
2022/10/22 06:16:17;;;;;;;1.03;0.63;;;18.90;99.90;;;19.27;59.45;100766.81;4947318;28;97078;-48
2022/10/22 06:18:43;;;;;;;0.90;0.30;;;18.90;99.90;;;19.35;59.20;100770.75;4950819;28;96700;-47
2022/10/22 06:21:13;;;;;;;0.87;0.50;;;19.10;99.90;;;19.37;59.11;100766.16;4943121;28;98091;-46
2022/10/22 06:23:39;;;;;;;0.60;0.23;;;19.10;99.90;;;19.38;59.08;100776.72;4949871;28;97343;-48
2022/10/22 06:26:07;;;;;;;0.40;0.40;;;19.10;99.90;;;19.40;59.13;100787.34;4963651;28;103323;-47
2022/10/22 06:28:33;;;;;;;0.63;0.40;;;19.20;99.90;;;19.42;58.81;100790.78;4954591;28;98008;-51
2022/10/22 06:31:00;;;;;;;0.83;0.63;;;19.20;99.90;;;19.42;59.17;100796.13;4948564;28;97515;-45
2022/10/22 06:33:28;;;;;;;0.43;0.40;;;19.20;99.90;;;19.42;58.90;100799.66;4956084;28;100454;-46
2022/10/22 06:35:54;;;;;;;1.37;0.70;;;19.20;99.90;;;19.41;59.39;100805.13;4934584;28;97978;-47
2022/10/22 06:38:20;;;;;;;0.73;0.60;;;19.20;99.90;;;19.35;59.96;100810.88;4938970;28;99692;-47
2022/10/22 06:40:45;;;;;;;1.90;0.90;;;19.10;99.90;;;19.18;61.47;100818.25;4947237;28;97599;-45
2022/10/22 06:43:13;;;;;;;0.77;0.60;;;18.90;99.90;;;19.23;60.03;100813.44;4952371;28;97124;-46
2022/10/22 06:45:39;;;;;;;0.30;0.30;;;18.90;99.90;;;19.13;60.56;100812.38;4947145;28;96973;-50
2022/10/22 06:48:06;;;;;;;0.43;0.23;;;18.80;99.90;;;19.16;60.59;100814.81;4938457;28;100206;-47
2022/10/22 06:50:34;;;;;;;0.77;0.50;;;18.80;99.90;;;19.22;59.69;100817.06;4944700;28;97133;-46
2022/10/22 06:53:00;;;;;;;0.20;0.20;;;18.90;99.90;;;19.22;60.08;100825.09;4947672;28;97516;-48
2022/10/22 06:55:25;;;;;;;1.27;0.90;;;19.00;99.90;;;19.21;60.27;100826.06;4951838;28;101485;-47
2022/10/22 06:57:51;;;;;;;0.60;0.60;;;18.90;99.90;;;19.21;60.06;100830.53;4947929;28;106596;-48
2022/10/22 07:00:17;;;;;;;1.10;0.40;;;18.90;99.90;;;19.21;60.18;100831.41;4925969;28;96865;-46
2022/10/22 07:02:43;;;;;;;0.87;0.63;;;18.90;99.90;;;19.20;60.23;100829.69;4934147;28;97223;-44
2022/10/22 07:05:09;;;;;;;1.20;1.10;;;18.90;99.90;;;19.24;59.84;100831.22;4922935;28;97728;-46
2022/10/22 07:07:34;;;;;;;0.40;0.40;;;19.00;99.90;;;19.21;60.26;100842.09;4940803;28;104669;-49
2022/10/22 07:10:00;;;;;;;0.23;0.23;;;18.90;99.90;;;19.21;60.03;100839.41;4949242;28;119297;-47
2022/10/22 07:12:26;;;;;;;0.33;0.33;;;18.90;99.90;;;19.20;60.35;100843.06;4950163;28;98901;-47
2022/10/22 07:14:52;;;;;;;0.30;0.30;;;18.90;99.90;;;19.18;60.21;100845.00;4941102;28;104740;-48
2022/10/22 07:17:17;;;;;;;1.70;0.90;;;18.80;99.90;;;19.12;60.73;100848.09;4947016;28;102064;-44
2022/10/22 07:19:43;;;;;;;1.40;0.70;;;18.80;99.90;;;19.15;60.89;100852.38;4952371;28;99228;-46
2022/10/22 07:22:09;;;;;;;0.57;0.30;;;18.80;99.90;;;19.19;59.96;100848.50;4950033;28;97105;-44
2022/10/22 07:24:35;;;;;;;0.30;0.30;;;18.80;99.90;;;19.20;59.89;100859.09;4942328;28;97862;-47
2022/10/22 07:27:00;;;;;;;1.13;0.63;;;18.90;99.90;;;19.30;59.78;100857.53;4939988;28;99672;-46
2022/10/22 07:29:27;;;;;;;0.73;0.43;;;19.10;99.90;;;19.35;60.13;100853.66;4952269;28;105213;-45
2022/10/22 07:31:53;;;;;;;1.00;0.70;;;19.10;99.90;;;19.39;59.69;100861.38;4949096;28;97613;-45
2022/10/22 07:34:18;;;;;;;0.40;0.30;;;19.20;99.90;;;19.39;60.10;100857.88;4948942;28;96918;-46
2022/10/22 07:36:44;;;;;;;0.50;0.50;;;19.20;99.90;;;19.39;61.35;100873.91;4943434;28;110487;-46
2022/10/22 07:39:10;;;;;;;0.97;0.53;;;19.20;99.90;;;19.40;61.22;100867.59;4939524;28;97367;-45
2022/10/22 07:41:35;;;;;;;3.90;0.90;;;19.20;99.90;;;19.43;60.48;100872.72;4952881;28;96993;-46
2022/10/22 07:44:01;;;;;;;1.00;0.77;;;19.20;99.90;;;19.38;61.03;100874.84;4940747;28;97220;-48
2022/10/22 07:46:27;;;;;;;3.40;0.53;;;19.20;99.90;;;19.38;60.10;100880.19;4951513;28;97549;-48
2022/10/22 07:48:54;;;;;;;0.60;0.47;;;19.10;99.90;;;19.39;59.73;100888.13;4949921;28;96915;-49
2022/10/22 07:51:20;;;;;;;1.27;0.73;;;19.20;99.90;;;19.43;59.17;100891.44;4953387;28;97315;-47
2022/10/22 07:53:46;;;;;;;1.00;0.40;;;19.20;99.90;;;19.41;60.03;100891.56;4951618;28;100457;-48
2022/10/22 07:56:12;;;;;;;0.10;0.10;;;19.20;99.90;;;19.46;59.17;100900.13;4964800;28;102333;-43
2022/10/22 07:58:38;;;;;;;0.57;0.50;;;19.30;99.90;;;19.49;61.26;100905.25;4949770;28;97596;-46
2022/10/22 08:01:04;;;;;;;0.40;0.40;;;19.40;99.90;;;19.49;59.31;100909.75;4946256;28;97408;-45
2022/10/22 08:03:30;;;;;;;0.87;0.73;;;19.30;99.90;;;19.48;60.23;100910.72;4935529;28;99960;-49
2022/10/22 08:05:57;;;;;;;0.57;0.57;;;19.30;99.90;;;19.50;59.23;100922.16;4935920;28;99409;-45
2022/10/22 08:08:23;;;;;;;1.27;0.83;;;19.30;99.90;;;19.55;60.21;100917.41;4940134;28;97100;-45
2022/10/22 08:10:54;;;;;;;0.80;0.60;;;19.40;99.90;;;19.57;58.97;100913.66;4940727;28;98227;-49
2022/10/22 08:13:20;;;;;;;0.80;0.43;;;19.40;99.90;;;19.56;60.01;100921.78;4929478;28;98273;-47
2022/10/22 08:15:46;;;;;;;0.70;0.37;;;19.40;99.90;;;19.61;59.50;100925.00;4933462;28;97519;-47
2022/10/22 08:18:12;;;;;;;0.50;0.50;;;19.50;99.90;;;19.63;58.70;100928.41;4932764;28;98156;-48
2022/10/22 08:20:38;;;;;;;2.17;0.20;;;19.50;99.90;;;19.65;59.36;100930.97;4938891;28;99056;-48
2022/10/22 08:23:04;;;;;;;0.27;0.27;;;19.60;99.90;;;19.68;58.62;100936.13;4939372;28;99278;-48
2022/10/22 08:25:31;;;;;;;2.60;0.70;;;19.60;99.90;;;19.68;62.15;100937.00;4940087;28;97376;-47
2022/10/22 08:27:57;;;;;;;0.63;0.40;;;19.60;99.90;;;19.62;59.37;100932.06;4936525;28;98707;-49
2022/10/22 08:30:23;;;;;;;0.53;0.40;;;19.50;99.90;;;19.65;59.18;100942.53;4939248;28;98853;-49
2022/10/22 08:32:49;;;;;;;0.63;0.50;;;19.60;99.90;;;19.60;60.06;100947.34;4937469;28;97503;-48
2022/10/22 08:35:14;;;;;;;0.40;0.40;;;19.50;99.90;;;19.53;60.85;100956.75;4932225;28;101689;-48
2022/10/22 08:37:40;;;;;;;0.83;0.60;;;19.40;99.90;;;19.50;59.14;100952.44;4938451;28;101588;-47
2022/10/22 08:40:06;;;;;;;0.87;0.53;;;19.40;99.90;;;19.44;59.43;100954.69;4936322;28;97687;-46
2022/10/22 08:42:57;;;;;;;1.27;0.37;;;19.30;99.90;;;19.40;60.25;100958.53;4941024;28;97855;-46
2022/10/22 08:45:42;;;;;;;0.43;0.30;;;19.20;99.90;;;19.42;59.42;100960.16;4935332;28;102205;-45
2022/10/22 08:48:27;;;;;;;0.73;0.50;;;19.20;99.90;;;19.42;60.64;100962.81;4935010;28;97674;-47
2022/10/22 08:50:56;;;;;;;0.87;0.40;;;19.30;99.90;;;19.43;60.83;100963.69;4938001;28;96890;-46
2022/10/22 08:53:48;;;;;;;0.33;0.20;;;19.30;99.90;;;19.42;60.06;100972.66;4936606;28;97126;-47
2022/10/22 08:56:14;;;;;;;1.07;0.40;;;19.20;99.90;;;19.32;60.96;100973.28;4934517;28;97521;-46
2022/10/22 08:59:16;;;;;;;0.77;0.50;;;19.20;99.90;;;19.44;59.42;100984.97;4940839;28;98551;-47
2022/10/22 09:01:46;;;;;;;0.20;0.20;;;19.30;99.90;;;19.44;59.57;100982.28;4915505;28;98640;-48
2022/10/22 09:04:24;;;;;;;0.60;0.50;;;19.30;99.90;;;19.42;59.66;100983.38;4922197;28;97567;-48
2022/10/22 09:06:52;;;;;;;0.40;0.30;;;19.30;99.90;;;19.46;59.75;100984.88;4939873;28;97182;-45
2022/10/22 09:09:19;;;;;;;0.40;0.40;;;19.30;99.90;;;19.44;60.44;100986.78;4923208;28;103017;-45
2022/10/22 09:11:49;;;;;;;0.77;0.50;;;19.30;99.90;;;19.37;60.38;100986.31;4945617;28;97354;-45
2022/10/22 09:14:19;;;;;;;2.27;0.57;;;19.20;99.90;;;19.40;60.72;100991.50;4944414;28;97362;-48
2022/10/22 09:17:05;;;;;;;1.10;0.50;;;19.20;99.90;;;19.44;59.31;100997.50;4952994;28;98315;-45
2022/10/22 09:19:56;;;;;;;0.60;0.30;;;19.30;99.90;;;19.51;59.48;100998.78;4938379;28;103823;-45
2022/10/22 09:22:50;;;;;;;0.63;0.50;;;19.30;99.90;;;19.54;59.14;100998.59;4948066;28;97656;-44
2022/10/22 09:25:28;;;;;;;0.67;0.67;;;19.40;99.90;;;19.48;59.57;101009.69;4941225;28;97465;-50
2022/10/22 09:27:57;;;;;;;2.83;0.73;;;19.40;99.90;;;19.50;59.71;101013.13;4929344;28;97705;-50
2022/10/22 09:30:30;;;;;;;0.30;0.20;;;19.30;99.90;;;19.55;59.88;101016.38;4930575;28;97534;-45
2022/10/22 09:33:05;;;;;;;0.67;0.37;;;19.40;99.90;;;19.55;60.42;101016.38;4949346;28;97217;-49
2022/10/22 09:35:45;;;;;;;0.63;0.50;;;19.40;99.90;;;19.57;60.03;101014.47;4948090;28;102959;-46
2022/10/22 09:38:14;;;;;;;0.60;0.40;;;19.50;99.90;;;19.52;59.83;101021.88;4959802;28;99448;-50
2022/10/22 09:40:53;;;;;;;0.37;0.30;;;19.40;99.90;;;19.54;59.70;101014.66;4952736;28;97408;-47
2022/10/22 09:43:20;;;;;;;0.70;0.30;;;19.40;99.90;;;19.53;59.05;101007.59;4951292;28;98058;-45
2022/10/22 09:45:47;;;;;;;0.70;0.57;;;19.40;99.90;;;19.53;59.09;101018.28;4951063;28;97329;-45
2022/10/22 09:48:25;;;;;;;0.20;0.20;;;19.40;99.90;;;19.53;58.77;101023.63;4947037;28;97769;-48
2022/10/22 09:51:17;;;;;;;0.40;0.40;;;19.40;99.90;;;19.48;60.14;101025.75;4942073;28;98013;-52
2022/10/22 09:53:47;;;;;;;0.40;0.23;;;19.30;99.90;;;19.48;59.32;101026.59;4953262;28;97575;-46
2022/10/22 09:56:27;;;;;;;0.67;0.30;;;19.30;99.90;;;19.52;58.88;101032.59;4949448;28;97813;-47
2022/10/22 09:58:56;;;;;;;0.20;0.20;;;19.40;99.90;;;19.46;59.15;101036.53;4947711;28;97664;-51
2022/10/22 10:01:26;;;;;;;1.97;0.20;;;19.30;99.90;;;19.53;59.44;101039.69;4950664;28;97124;-50
2022/10/22 10:03:52;;;;;;;0.50;0.30;;;19.40;99.90;;;19.47;59.66;101046.28;4951588;28;97455;-49
2022/10/22 10:06:21;;;;;;;0.50;0.30;;;19.30;99.90;;;19.50;59.60;101042.53;4953897;28;103828;-46
2022/10/22 10:08:48;;;;;;;1.80;0.50;;;19.40;99.90;;;19.50;59.04;101045.22;4953809;28;96810;-47
2022/10/22 10:11:28;;;;;;;0.43;0.40;;;19.30;99.90;;;19.49;59.26;101046.19;4946020;28;97456;-47
2022/10/22 10:14:34;;;;;;;0.13;0.13;;;19.30;99.90;;;19.46;59.12;101049.06;4942961;28;97313;-49
2022/10/22 10:17:20;;;;;;;0.23;0.23;;;19.30;99.90;;;19.46;59.94;101059.78;4949240;28;96890;-45
2022/10/22 10:19:55;;;;;;;0.40;0.20;;;19.30;99.90;;;19.39;59.40;101053.13;4949842;28;97660;-46
2022/10/22 10:22:51;;;;;;;0.40;0.10;;;19.20;99.90;;;19.40;59.10;101061.03;4951454;28;101443;-46
2022/10/22 10:25:31;;;;;;;1.60;0.20;;;19.30;99.90;;;19.47;58.89;101067.69;4935347;28;97609;-44